Time;durP1;ratioP1;P1;durP2;ratioP2;P2;SDS_P1;SDS_P2;PMS_P1;PMS_P2;Temp;Humidity;BMP_temperature;BMP_pressure;BME280_temperature;BME280_humidity;BME280_pressure;Samples;Min_cycle;Max_cycle;Signal;HPM_P1;HPM_P2
2021/05/20 00:01:15;;;;;;;3.43;2.23;;;7.60;99.90;;;;;;4899767;29;21079;-83
2021/05/20 00:03:41;;;;;;;2.20;2.00;;;7.60;99.90;;;;;;4906525;29;20401;-78
2021/05/20 00:06:07;;;;;;;2.07;1.97;;;7.60;99.90;;;;;;4886723;29;20400;-77
2021/05/20 00:08:32;;;;;;;2.45;2.25;;;7.60;99.90;;;;;;4899548;29;20906;-82
2021/05/20 00:10:58;;;;;;;2.60;2.30;;;7.50;99.90;;;;;;4900441;29;20396;-78
2021/05/20 00:13:24;;;;;;;2.88;2.10;;;7.60;99.90;;;;;;4900904;29;21245;-82
2021/05/20 00:15:50;;;;;;;1.88;1.77;;;7.60;99.90;;;;;;4867749;29;20431;-81
2021/05/20 00:18:16;;;;;;;2.45;2.17;;;7.50;99.90;;;;;;4885114;29;20414;-86
2021/05/20 00:20:42;;;;;;;2.47;2.00;;;7.60;99.90;;;;;;4898616;29;20411;-82
2021/05/20 00:23:07;;;;;;;2.00;1.80;;;7.60;99.90;;;;;;4884628;29;20457;-78
2021/05/20 00:25:33;;;;;;;2.50;2.27;;;7.50;99.90;;;;;;4900058;29;20403;-83
2021/05/20 00:27:58;;;;;;;2.73;2.33;;;7.50;99.90;;;;;;4916642;29;20407;-79
2021/05/20 00:30:24;;;;;;;2.60;2.40;;;7.50;99.90;;;;;;4899894;29;20428;-80
2021/05/20 00:32:50;;;;;;;2.37;2.17;;;7.40;99.90;;;;;;4885132;29;20404;-80
2021/05/20 00:35:16;;;;;;;2.40;2.20;;;7.40;99.90;;;;;;4884873;29;20419;-84
2021/05/20 00:37:41;;;;;;;2.50;2.30;;;7.40;99.90;;;;;;4900379;29;20875;-88
2021/05/20 00:40:07;;;;;;;3.45;2.40;;;7.30;99.90;;;;;;4898567;29;20412;-84
2021/05/20 00:42:33;;;;;;;2.38;2.20;;;7.30;99.90;;;;;;4882523;29;20405;-79
2021/05/20 00:44:59;;;;;;;2.90;2.55;;;7.30;99.90;;;;;;4898517;29;20404;-82
2021/05/20 00:47:26;;;;;;;2.15;2.00;;;7.30;99.90;;;;;;4898574;29;20416;-78
2021/05/20 00:49:53;;;;;;;2.45;2.25;;;7.30;99.90;;;;;;4899081;29;20443;-79
2021/05/20 00:52:19;;;;;;;2.70;2.33;;;7.50;99.90;;;;;;4897937;29;20475;-81
2021/05/20 00:54:47;;;;;;;3.75;2.72;;;7.30;99.90;;;;;;4899080;29;20419;-80
2021/05/20 00:57:13;;;;;;;2.55;2.35;;;7.30;99.90;;;;;;4869251;29;20402;-80
2021/05/20 00:59:38;;;;;;;2.80;2.60;;;7.20;99.90;;;;;;4885827;29;20392;-85
2021/05/20 01:02:04;;;;;;;2.50;2.30;;;7.20;99.90;;;;;;4896403;29;20498;-87
2021/05/20 01:04:30;;;;;;;3.22;2.63;;;7.30;99.90;;;;;;4873163;29;20415;-85
2021/05/20 01:06:56;;;;;;;2.45;2.25;;;7.40;99.90;;;;;;4880109;29;20412;-80
2021/05/20 01:09:21;;;;;;;2.27;2.17;;;7.40;99.90;;;;;;4841405;29;20394;-78
2021/05/20 01:11:47;;;;;;;2.55;2.35;;;7.30;99.90;;;;;;4899705;29;20403;-81
2021/05/20 01:14:13;;;;;;;3.05;2.30;;;7.30;99.90;;;;;;4899092;29;20981;-78
2021/05/20 01:16:38;;;;;;;3.30;2.40;;;7.30;99.90;;;;;;4882681;29;20458;-82
2021/05/20 01:19:04;;;;;;;4.13;2.50;;;7.30;99.90;;;;;;4915732;29;20403;-85
2021/05/20 01:21:32;;;;;;;2.50;2.30;;;7.30;99.90;;;;;;4898609;29;21052;-83
2021/05/20 01:23:58;;;;;;;3.40;2.50;;;7.30;99.90;;;;;;4878604;29;20833;-83
2021/05/20 01:26:24;;;;;;;2.47;2.28;;;7.40;99.90;;;;;;4890825;29;20481;-77
2021/05/20 01:28:49;;;;;;;2.60;2.40;;;7.20;99.90;;;;;;4901998;29;20419;-78
2021/05/20 01:31:15;;;;;;;2.80;2.60;;;7.20;99.90;;;;;;4897510;29;20395;-84
2021/05/20 01:33:41;;;;;;;2.67;2.47;;;7.20;99.90;;;;;;4899191;29;20412;-80
2021/05/20 01:36:07;;;;;;;2.90;2.65;;;7.20;99.90;;;;;;4899344;29;20960;-84
2021/05/20 01:41:08;;;;;;;3.00;2.70;;;7.10;99.90;;;;;;4879866;29;20412;-79
2021/05/20 01:43:34;;;;;;;2.83;2.60;;;7.00;99.90;;;;;;4868311;29;20427;-84
2021/05/20 01:46:00;;;;;;;2.80;2.50;;;7.10;99.90;;;;;;4866036;29;20788;-76
2021/05/20 01:48:28;;;;;;;2.80;2.60;;;6.90;99.90;;;;;;4879456;29;20535;-79
2021/05/20 01:51:00;;;;;;;3.17;2.88;;;6.90;99.90;;;;;;4899970;29;20469;-76
2021/05/20 01:53:25;;;;;;;2.63;2.42;;;6.90;99.90;;;;;;4868337;29;20404;-78
2021/05/20 01:55:51;;;;;;;2.50;2.30;;;6.90;99.90;;;;;;4894123;29;20436;-78
2021/05/20 01:58:17;;;;;;;2.67;2.47;;;6.90;99.90;;;;;;4870483;29;20472;-82
2021/05/20 02:00:42;;;;;;;3.00;2.80;;;7.00;99.90;;;;;;4911747;29;20398;-77
2021/05/20 02:03:08;;;;;;;2.57;2.37;;;6.90;99.90;;;;;;4881363;29;20418;-81
2021/05/20 02:05:35;;;;;;;3.00;2.70;;;6.90;99.90;;;;;;4881315;29;20415;-76
2021/05/20 02:08:01;;;;;;;2.53;2.33;;;7.00;99.90;;;;;;4867541;29;20882;-78
2021/05/20 02:10:26;;;;;;;3.27;2.63;;;6.90;99.90;;;;;;4869760;29;20400;-82
2021/05/20 02:12:52;;;;;;;2.90;2.55;;;6.90;99.90;;;;;;4897395;29;20835;-78
2021/05/20 02:15:18;;;;;;;2.90;2.70;;;6.90;99.90;;;;;;4927450;29;20411;-81
2021/05/20 02:17:43;;;;;;;2.93;2.73;;;7.00;99.90;;;;;;4912666;29;20428;-80
2021/05/20 02:20:09;;;;;;;3.40;3.10;;;7.00;99.90;;;;;;4896615;29;20491;-80
2021/05/20 02:22:35;;;;;;;3.35;2.70;;;7.00;99.90;;;;;;4914278;29;20392;-83
2021/05/20 02:25:03;;;;;;;2.70;2.50;;;7.00;99.90;;;;;;4893450;29;20417;-81
2021/05/20 02:27:28;;;;;;;3.17;2.88;;;7.00;99.90;;;;;;4897840;29;20404;-77
2021/05/20 02:29:54;;;;;;;2.73;2.53;;;7.00;99.90;;;;;;4866067;29;21427;-80
2021/05/20 02:32:19;;;;;;;2.72;2.53;;;7.10;99.90;;;;;;4881874;29;20490;-80
2021/05/20 02:34:45;;;;;;;3.37;3.00;;;7.30;99.90;;;;;;4866801;29;20422;-77
2021/05/20 02:37:11;;;;;;;3.30;3.10;;;7.10;99.90;;;;;;4882043;29;21050;-79
2021/05/20 02:39:36;;;;;;;3.10;2.80;;;7.10;99.90;;;;;;4897390;29;20419;-80
2021/05/20 02:42:02;;;;;;;3.08;2.88;;;7.10;99.90;;;;;;4897318;29;20395;-78
2021/05/20 02:44:29;;;;;;;3.53;3.22;;;7.20;99.90;;;;;;4913421;29;20399;-77
2021/05/20 02:46:54;;;;;;;2.70;2.50;;;7.20;99.90;;;;;;4897252;29;20913;-81
2021/05/20 02:49:20;;;;;;;3.55;3.25;;;7.30;99.90;;;;;;4880683;29;20405;-76
2021/05/20 02:51:46;;;;;;;3.57;2.80;;;7.10;99.90;;;;;;4880854;29;20407;-78
2021/05/20 02:54:11;;;;;;;3.92;2.60;;;7.20;99.90;;;;;;4880925;29;20444;-80
2021/05/20 02:56:37;;;;;;;3.63;3.00;;;7.20;99.90;;;;;;4881145;29;20415;-76
2021/05/20 02:59:03;;;;;;;3.23;2.70;;;7.10;99.90;;;;;;4869124;29;20440;-76
2021/05/20 03:01:29;;;;;;;2.97;2.78;;;7.20;99.90;;;;;;4881121;29;20399;-76
2021/05/20 03:03:54;;;;;;;3.37;2.80;;;7.10;99.90;;;;;;4877995;29;20409;-81
2021/05/20 03:06:20;;;;;;;2.92;2.60;;;7.10;99.90;;;;;;4854418;29;20539;-76
2021/05/20 03:08:45;;;;;;;3.00;2.73;;;7.10;99.90;;;;;;4876755;29;20457;-76
2021/05/20 03:11:11;;;;;;;3.47;2.90;;;7.00;99.90;;;;;;4881068;29;20407;-76
2021/05/20 03:13:37;;;;;;;3.07;2.77;;;7.00;99.90;;;;;;4902351;29;20459;-77
2021/05/20 03:16:04;;;;;;;2.55;2.35;;;7.00;99.90;;;;;;4864515;29;22284;-76
2021/05/20 03:18:29;;;;;;;2.72;2.53;;;7.00;99.90;;;;;;4880419;29;20541;-79
2021/05/20 03:20:55;;;;;;;2.57;2.37;;;7.00;99.90;;;;;;4881162;29;20471;-79
2021/05/20 03:23:21;;;;;;;2.85;2.63;;;6.90;99.90;;;;;;4865902;29;20418;-76
2021/05/20 03:25:46;;;;;;;2.72;2.53;;;6.90;99.90;;;;;;4899272;29;20730;-80
2021/05/20 03:28:13;;;;;;;3.07;2.87;;;6.90;99.90;;;;;;4916086;29;20409;-79
2021/05/20 03:30:38;;;;;;;2.50;2.30;;;6.90;99.90;;;;;;4913035;29;20407;-81
2021/05/20 03:33:04;;;;;;;2.92;2.60;;;7.00;99.90;;;;;;4884138;29;20478;-78
2021/05/20 03:35:29;;;;;;;2.60;2.40;;;6.90;99.90;;;;;;4882107;29;20972;-76
2021/05/20 03:37:55;;;;;;;3.13;2.83;;;6.90;99.90;;;;;;4899832;29;20819;-84
2021/05/20 03:40:21;;;;;;;2.60;2.40;;;6.90;99.90;;;;;;4901414;29;21143;-77
2021/05/20 03:42:47;;;;;;;2.93;2.70;;;6.80;99.90;;;;;;4899196;29;20400;-81
2021/05/20 03:45:13;;;;;;;2.50;2.30;;;7.00;99.90;;;;;;4925817;29;20802;-76
2021/05/20 03:47:39;;;;;;;2.65;2.45;;;6.90;99.90;;;;;;4882748;29;20921;-79
2021/05/20 03:50:05;;;;;;;4.43;3.70;;;7.00;99.90;;;;;;4898617;29;20408;-78
2021/05/20 03:52:30;;;;;;;3.80;3.30;;;7.00;99.90;;;;;;4899353;29;20415;-78
2021/05/20 03:54:56;;;;;;;3.33;2.93;;;7.00;99.90;;;;;;4883182;29;20431;-82
2021/05/20 03:57:22;;;;;;;3.53;3.00;;;7.20;99.90;;;;;;4876201;29;20399;-78
2021/05/20 03:59:47;;;;;;;3.63;2.87;;;7.00;99.90;;;;;;4882551;29;20914;-84
2021/05/20 04:02:13;;;;;;;2.70;2.50;;;7.10;99.90;;;;;;4884813;29;20978;-78
2021/05/20 04:04:39;;;;;;;2.90;2.70;;;7.20;99.90;;;;;;4898899;29;20892;-85
2021/05/20 04:07:04;;;;;;;3.00;2.80;;;7.30;99.90;;;;;;4900421;29;20394;-87
2021/05/20 04:09:30;;;;;;;2.60;2.40;;;7.30;99.90;;;;;;4884496;29;20460;-89
2021/05/20 04:11:56;;;;;;;3.13;2.93;;;7.40;99.90;;;;;;4890465;29;20450;-79
2021/05/20 04:14:21;;;;;;;2.85;2.65;;;7.50;99.90;;;;;;4893219;29;20404;-79
2021/05/20 04:16:47;;;;;;;2.70;2.50;;;7.60;99.90;;;;;;4880219;29;20410;-86
2021/05/20 04:19:15;;;;;;;2.60;2.40;;;7.70;99.90;;;;;;4900943;29;20454;-81
2021/05/20 04:21:41;;;;;;;3.00;2.80;;;7.90;99.90;;;;;;4883599;29;21142;-81
2021/05/20 04:24:07;;;;;;;4.18;3.78;;;8.00;99.90;;;;;;4904788;29;20406;-77
2021/05/20 04:26:32;;;;;;;3.05;2.75;;;8.20;99.90;;;;;;4884670;29;20422;-82
2021/05/20 04:28:58;;;;;;;2.80;2.60;;;8.40;99.90;;;;;;4866882;29;20407;-78
2021/05/20 04:31:24;;;;;;;2.78;2.58;;;8.60;99.90;;;;;;4896842;29;20408;-78
2021/05/20 04:33:49;;;;;;;2.60;2.40;;;8.80;99.90;;;;;;4883173;29;20402;-78
2021/05/20 04:36:15;;;;;;;2.60;2.40;;;8.90;99.90;;;;;;4932782;29;20409;-80
2021/05/20 04:38:41;;;;;;;2.53;2.33;;;9.10;99.90;;;;;;4915414;29;20411;-79
2021/05/20 04:41:07;;;;;;;2.70;2.50;;;9.20;99.90;;;;;;4898161;29;20412;-82
2021/05/20 04:43:33;;;;;;;2.30;2.20;;;9.40;99.90;;;;;;4894939;29;20405;-78
2021/05/20 04:45:58;;;;;;;3.22;2.92;;;9.40;99.90;;;;;;4880123;29;20510;-80
2021/05/20 04:48:24;;;;;;;2.87;2.60;;;9.50;99.90;;;;;;4885975;29;20407;-79
2021/05/20 04:50:50;;;;;;;2.55;2.35;;;9.50;99.90;;;;;;4880969;29;20498;-77
2021/05/20 04:53:15;;;;;;;3.63;2.43;;;9.70;99.90;;;;;;4908667;29;20409;-77
2021/05/20 04:55:41;;;;;;;2.63;2.42;;;9.70;99.90;;;;;;4896929;29;20798;-78
2021/05/20 04:58:06;;;;;;;2.27;2.10;;;9.90;99.90;;;;;;4882445;29;20407;-78
2021/05/20 05:00:32;;;;;;;2.60;2.20;;;10.00;99.90;;;;;;4900798;29;20402;-76
2021/05/20 05:02:58;;;;;;;2.45;2.25;;;9.90;99.90;;;;;;4851342;29;20488;-78
2021/05/20 05:05:24;;;;;;;2.20;2.10;;;9.90;99.90;;;;;;4859657;29;20781;-83
2021/05/20 05:07:50;;;;;;;2.60;2.15;;;10.00;99.90;;;;;;4875833;29;21268;-80
2021/05/20 05:10:16;;;;;;;2.22;2.03;;;10.00;99.90;;;;;;4888979;29;20407;-78
2021/05/20 05:12:41;;;;;;;2.30;2.10;;;10.10;99.90;;;;;;4907445;29;20431;-75
2021/05/20 05:15:07;;;;;;;2.30;2.10;;;10.10;99.90;;;;;;4895267;29;20511;-81
2021/05/20 05:17:33;;;;;;;2.25;2.10;;;10.20;99.90;;;;;;4892308;29;20393;-76
2021/05/20 05:19:59;;;;;;;2.40;2.20;;;10.30;99.90;;;;;;4886020;29;21068;-76
2021/05/20 05:22:24;;;;;;;2.17;2.07;;;10.30;99.90;;;;;;4885187;29;21133;-76
2021/05/20 05:24:50;;;;;;;2.53;2.33;;;10.40;99.90;;;;;;4896414;29;20499;-76
2021/05/20 05:27:16;;;;;;;4.47;2.30;;;10.30;99.90;;;;;;4903703;29;20401;-80
2021/05/20 05:29:43;;;;;;;2.13;1.98;;;10.20;99.90;;;;;;4893708;29;20769;-77
2021/05/20 05:32:09;;;;;;;2.97;2.38;;;10.30;99.90;;;;;;4909319;29;20402;-80
2021/05/20 05:34:34;;;;;;;2.08;1.98;;;10.30;99.90;;;;;;4881610;29;20981;-76
2021/05/20 05:37:01;;;;;;;2.27;2.13;;;10.50;99.90;;;;;;4897154;29;20406;-79
2021/05/20 05:39:27;;;;;;;2.42;2.22;;;10.30;99.90;;;;;;4879854;29;20420;-76
2021/05/20 05:41:53;;;;;;;2.88;2.03;;;10.40;99.90;;;;;;4879084;29;20411;-75
2021/05/20 05:44:18;;;;;;;2.30;2.20;;;10.40;99.90;;;;;;4894107;29;20389;-79
2021/05/20 05:46:44;;;;;;;2.40;2.20;;;10.60;99.90;;;;;;4926196;29;20408;-75
2021/05/20 05:49:18;;;;;;;1.80;1.70;;;10.60;99.90;;;;;;4866082;29;20813;-80
2021/05/20 05:52:06;;;;;;;2.22;2.03;;;10.70;99.90;;;;;;4897255;29;20409;-76
2021/05/20 05:54:31;;;;;;;2.25;2.15;;;10.80;99.90;;;;;;4915698;29;20415;-78
2021/05/20 05:56:57;;;;;;;2.00;1.90;;;10.80;99.90;;;;;;4880758;29;20752;-76
2021/05/20 05:59:23;;;;;;;2.47;2.28;;;10.80;99.90;;;;;;4889479;29;20395;-75
2021/05/20 06:01:48;;;;;;;2.17;1.97;;;11.00;99.90;;;;;;4880314;29;20400;-76
2021/05/20 06:04:15;;;;;;;2.25;2.10;;;11.00;99.90;;;;;;4881112;29;20903;-78
2021/05/20 06:06:44;;;;;;;2.30;2.10;;;11.20;99.90;;;;;;4890569;29;20785;-75
2021/05/20 06:09:10;;;;;;;2.05;1.95;;;11.30;99.90;;;;;;4896088;29;20427;-76
2021/05/20 06:11:35;;;;;;;2.10;1.90;;;11.30;99.90;;;;;;4880733;29;20400;-76
2021/05/20 06:14:03;;;;;;;1.90;1.80;;;11.50;99.90;;;;;;4895509;29;20399;-77
2021/05/20 06:16:29;;;;;;;1.90;1.80;;;11.70;99.90;;;;;;4895374;29;20416;-75
2021/05/20 06:18:55;;;;;;;2.80;2.03;;;11.70;99.90;;;;;;4912398;29;20395;-76
2021/05/20 06:21:21;;;;;;;1.90;1.75;;;11.80;99.90;;;;;;4880436;29;20882;-77
2021/05/20 06:23:47;;;;;;;2.03;1.88;;;11.80;99.90;;;;;;4879301;29;20412;-76
2021/05/20 06:26:13;;;;;;;1.90;1.80;;;12.00;99.90;;;;;;4909110;29;20912;-75
2021/05/20 06:28:39;;;;;;;1.80;1.70;;;12.00;99.90;;;;;;4898637;29;20406;-76
2021/05/20 06:31:04;;;;;;;2.10;1.90;;;12.10;99.90;;;;;;4880453;29;20438;-75
2021/05/20 06:33:30;;;;;;;1.93;1.83;;;12.10;99.90;;;;;;4896036;29;20922;-77
2021/05/20 06:35:56;;;;;;;2.10;1.90;;;12.20;99.90;;;;;;4896297;29;20423;-75
2021/05/20 06:38:23;;;;;;;2.00;1.90;;;12.30;99.90;;;;;;4884887;29;20888;-76
2021/05/20 06:40:49;;;;;;;2.70;2.50;;;12.40;99.90;;;;;;4909332;29;20986;-76
2021/05/20 06:43:14;;;;;;;2.00;1.90;;;12.60;99.90;;;;;;4880455;29;20411;-75
2021/05/20 06:45:40;;;;;;;2.10;2.00;;;12.60;99.90;;;;;;4882327;29;20413;-77
2021/05/20 06:48:06;;;;;;;2.63;2.00;;;12.70;99.90;;;;;;4895408;29;20914;-77
2021/05/20 06:50:31;;;;;;;2.25;2.03;;;12.80;99.90;;;;;;4915548;28;20904;-77
2021/05/20 06:52:58;;;;;;;2.30;2.10;;;12.80;99.90;;;;;;4898481;29;20736;-75
2021/05/20 06:55:24;;;;;;;2.35;2.20;;;13.00;99.90;;;;;;4906858;29;20446;-76
2021/05/20 07:00:35;;;;;;;2.40;2.20;;;13.00;99.90;;;;;;4881327;29;20754;-74
2021/05/20 07:03:01;;;;;;;2.80;2.10;;;12.90;99.90;;;;;;4865949;29;20438;-80
2021/05/20 07:05:26;;;;;;;1.92;1.83;;;13.00;99.90;;;;;;4877338;29;20975;-77
2021/05/20 07:07:52;;;;;;;2.00;1.90;;;13.00;99.90;;;;;;4900385;29;20403;-77
2021/05/20 07:10:18;;;;;;;2.03;1.83;;;13.10;99.90;;;;;;4880441;29;20408;-76
2021/05/20 07:12:44;;;;;;;1.90;1.65;;;13.20;99.90;;;;;;4886492;29;20400;-75
2021/05/20 07:15:10;;;;;;;2.13;1.93;;;13.40;99.90;;;;;;4919041;29;20906;-76
2021/05/20 07:17:35;;;;;;;2.22;2.03;;;13.40;99.90;;;;;;4898029;29;20400;-79
2021/05/20 07:20:02;;;;;;;2.30;1.90;;;13.40;99.90;;;;;;4883715;29;20407;-76
2021/05/20 07:22:28;;;;;;;1.85;1.75;;;13.40;99.90;;;;;;4900184;29;20403;-77
2021/05/20 07:24:54;;;;;;;2.22;2.00;;;13.60;99.90;;;;;;4880439;29;20792;-76
2021/05/20 07:27:19;;;;;;;1.63;1.53;;;13.70;99.90;;;;;;4899477;29;20406;-76
2021/05/20 07:29:45;;;;;;;1.90;1.80;;;13.80;99.90;;;;;;4899602;29;20419;-76
2021/05/20 07:32:16;;;;;;;2.33;2.13;;;13.90;99.90;;;;;;4898735;29;20407;-77
2021/05/20 07:34:42;;;;;;;2.30;2.00;;;14.00;99.90;;;;;;4885139;29;20432;-76
2021/05/20 07:37:10;;;;;;;2.22;1.88;;;14.00;99.90;;;;;;4918007;29;20497;-76
2021/05/20 07:39:35;;;;;;;2.00;1.90;;;13.90;99.90;;;;;;4893372;29;20486;-77
2021/05/20 07:42:01;;;;;;;2.15;1.95;;;14.00;99.90;;;;;;4893031;29;20551;-76
2021/05/20 07:44:27;;;;;;;2.07;1.90;;;14.10;99.90;;;;;;4897000;29;20488;-76
2021/05/20 07:46:54;;;;;;;1.75;1.65;;;14.20;99.90;;;;;;4863522;29;20406;-75
2021/05/20 07:49:20;;;;;;;1.90;1.80;;;14.50;99.90;;;;;;4865657;29;20401;-76
2021/05/20 07:51:45;;;;;;;1.77;1.67;;;14.50;99.90;;;;;;4896328;29;20430;-77
2021/05/20 07:54:11;;;;;;;1.88;1.75;;;14.60;99.90;;;;;;4898692;29;20412;-75
2021/05/20 07:56:37;;;;;;;2.15;1.95;;;14.80;99.90;;;;;;4883362;29;20411;-76
2021/05/20 07:59:03;;;;;;;1.80;1.70;;;14.90;99.90;;;;;;4898375;29;20471;-74
2021/05/20 08:01:30;;;;;;;2.05;1.95;;;15.00;99.90;;;;;;4882307;29;20407;-82
2021/05/20 08:04:06;;;;;;;2.15;1.95;;;14.90;99.90;;;;;;4896262;29;20402;-76
2021/05/20 08:06:38;;;;;;;2.10;1.90;;;14.70;99.90;;;;;;4878767;29;20438;-74
2021/05/20 08:11:59;;;;;;;2.22;2.00;;;14.90;99.90;;;;;;4891725;29;20395;-79
2021/05/20 08:14:25;;;;;;;1.87;1.77;;;15.10;99.90;;;;;;4883925;29;20411;-78
2021/05/20 08:16:51;;;;;;;2.10;1.90;;;15.20;99.90;;;;;;4903858;29;20778;-75
2021/05/20 08:19:16;;;;;;;1.77;1.67;;;15.40;99.90;;;;;;4882531;29;20406;-77
2021/05/20 08:21:42;;;;;;;1.77;1.67;;;15.70;99.90;;;;;;4882593;29;20401;-76
2021/05/20 08:24:08;;;;;;;2.15;1.95;;;16.00;99.90;;;;;;4897734;29;20411;-78
2021/05/20 08:26:34;;;;;;;1.90;1.80;;;16.20;99.90;;;;;;4896835;29;20754;-76
2021/05/20 08:29:00;;;;;;;1.95;1.70;;;16.30;99.90;;;;;;4882795;29;20411;-75
2021/05/20 08:31:26;;;;;;;2.20;2.00;;;16.40;99.90;;;;;;4882217;29;20516;-77
2021/05/20 08:33:52;;;;;;;1.98;1.80;;;16.30;99.90;;;;;;4899161;29;20487;-77
2021/05/20 08:36:17;;;;;;;1.80;1.70;;;16.20;99.90;;;;;;4894006;29;20425;-74
2021/05/20 08:38:43;;;;;;;1.60;1.50;;;16.10;99.90;;;;;;4871985;29;20399;-74
2021/05/20 08:41:09;;;;;;;2.10;2.00;;;16.00;99.90;;;;;;4898164;29;20482;-77
2021/05/20 08:43:35;;;;;;;1.90;1.80;;;16.10;99.90;;;;;;4897668;29;20423;-75
2021/05/20 08:46:00;;;;;;;2.23;1.83;;;15.90;99.90;;;;;;4897945;29;20928;-77
2021/05/20 08:48:26;;;;;;;2.97;1.98;;;16.10;99.90;;;;;;4897968;29;20458;-77
2021/05/20 08:50:52;;;;;;;1.77;1.67;;;16.50;99.90;;;;;;4882696;29;20451;-77
2021/05/20 08:53:17;;;;;;;2.13;1.92;;;16.50;99.90;;;;;;4867357;29;20450;-77
2021/05/20 08:55:43;;;;;;;2.03;1.93;;;16.60;99.90;;;;;;4893019;29;20766;-78
2021/05/20 08:58:10;;;;;;;2.20;2.00;;;16.80;99.90;;;;;;4882225;29;20418;-76
2021/05/20 09:00:36;;;;;;;2.00;1.90;;;16.90;99.90;;;;;;4913004;29;20926;-79
2021/05/20 09:03:08;;;;;;;1.75;1.65;;;16.90;99.90;;;;;;4897658;29;20403;-75
2021/05/20 09:05:34;;;;;;;1.33;1.33;;;17.30;99.90;;;;;;4907180;29;20450;-75
2021/05/20 09:08:02;;;;;;;1.73;1.63;;;17.60;99.90;;;;;;4909152;29;20752;-77
2021/05/20 09:10:35;;;;;;;1.50;1.40;;;17.70;99.90;;;;;;4879703;29;20425;-76
2021/05/20 09:13:04;;;;;;;1.77;1.60;;;18.00;99.90;;;;;;4896856;29;20462;-77
2021/05/20 09:15:38;;;;;;;1.70;1.60;;;18.10;99.90;;;;;;4893537;29;20409;-77
2021/05/20 09:18:20;;;;;;;1.65;1.55;;;18.10;99.90;;;;;;4882345;29;20404;-77
2021/05/20 09:20:48;;;;;;;1.40;1.30;;;18.50;99.90;;;;;;4896344;29;20416;-77
2021/05/20 09:23:20;;;;;;;1.70;1.60;;;18.80;99.90;;;;;;4881705;29;20396;-77
2021/05/20 09:25:46;;;;;;;1.48;1.38;;;19.10;99.90;;;;;;4872446;29;20405;-76
2021/05/20 09:28:13;;;;;;;1.50;1.40;;;19.10;99.90;;;;;;4884192;29;20400;-77
2021/05/20 09:30:40;;;;;;;1.65;1.55;;;19.00;99.90;;;;;;4896173;29;20407;-78
2021/05/20 09:33:10;;;;;;;1.50;1.40;;;18.80;99.90;;;;;;4864058;29;20432;-81
2021/05/20 09:35:42;;;;;;;1.20;1.20;;;18.80;99.90;;;;;;4863775;29;20433;-77
2021/05/20 09:38:24;;;;;;;1.50;1.40;;;19.10;99.90;;;;;;4882807;29;20467;-77
2021/05/20 09:41:01;;;;;;;1.48;1.38;;;19.50;99.90;;;;;;4882986;29;20408;-76
2021/05/20 09:43:38;;;;;;;1.50;1.40;;;19.30;99.90;;;;;;4897544;29;20418;-77
2021/05/20 09:46:09;;;;;;;1.10;1.10;;;19.00;99.90;;;;;;4881961;29;20452;-77
2021/05/20 09:48:39;;;;;;;1.15;1.15;;;19.00;99.90;;;;;;4912787;29;20763;-76
2021/05/20 09:51:06;;;;;;;1.40;1.30;;;19.00;99.90;;;;;;4920462;29;20414;-77
2021/05/20 09:53:42;;;;;;;1.42;1.33;;;18.70;99.90;;;;;;4896937;29;20403;-76
2021/05/20 09:56:07;;;;;;;1.40;1.30;;;18.80;99.90;;;;;;4897374;29;20446;-76
2021/05/20 09:58:33;;;;;;;1.00;1.00;;;19.30;99.90;;;;;;4881565;29;20454;-77
2021/05/20 10:00:59;;;;;;;1.13;1.10;;;19.70;99.90;;;;;;4893144;29;20406;-77
2021/05/20 10:03:26;;;;;;;1.30;1.20;;;19.60;99.90;;;;;;4881704;29;20802;-77
2021/05/20 10:06:02;;;;;;;1.48;1.38;;;19.70;99.90;;;;;;4876942;29;20915;-77
2021/05/20 10:08:32;;;;;;;1.05;1.05;;;19.80;99.90;;;;;;4880795;29;20772;-77
2021/05/20 10:11:01;;;;;;;1.50;1.40;;;19.80;99.90;;;;;;4887833;29;20918;-77
2021/05/20 10:13:27;;;;;;;1.38;1.27;;;19.80;99.90;;;;;;4881052;29;20823;-78
2021/05/20 10:15:54;;;;;;;1.63;1.52;;;19.70;99.90;;;;;;4896085;29;20419;-77
2021/05/20 10:18:23;;;;;;;1.10;1.10;;;19.10;99.90;;;;;;4894215;29;20465;-77
2021/05/20 10:20:50;;;;;;;2.67;1.30;;;18.80;99.90;;;;;;4891444;29;20411;-76
2021/05/20 10:23:18;;;;;;;3.40;1.23;;;17.70;99.90;;;;;;4898551;29;20478;-78
2021/05/20 10:25:44;;;;;;;1.17;1.10;;;17.50;99.90;;;;;;4872817;29;20490;-77
2021/05/20 10:28:11;;;;;;;2.08;1.50;;;17.00;99.90;;;;;;4896276;29;20451;-84
2021/05/20 10:30:38;;;;;;;1.43;1.33;;;16.90;99.90;;;;;;4892279;29;20408;-76
2021/05/20 10:33:04;;;;;;;1.10;1.10;;;16.80;99.90;;;;;;4881027;29;20482;-81
2021/05/20 10:35:49;;;;;;;1.00;1.00;;;16.80;99.90;;;;;;4896068;29;20423;-77
2021/05/20 10:38:35;;;;;;;1.00;1.00;;;17.00;99.90;;;;;;4887407;29;20809;-78
2021/05/20 10:41:18;;;;;;;1.00;1.00;;;17.20;99.90;;;;;;4892019;29;20471;-79
2021/05/20 10:43:45;;;;;;;0.90;0.90;;;17.20;99.90;;;;;;4879967;29;20416;-78
2021/05/20 10:46:17;;;;;;;0.95;0.90;;;16.90;99.90;;;;;;4894305;29;20774;-75
2021/05/20 10:49:01;;;;;;;0.82;0.82;;;16.90;99.90;;;;;;4895477;29;20440;-76
2021/05/20 10:51:28;;;;;;;1.00;1.00;;;16.80;99.90;;;;;;4879837;29;20531;-74
2021/05/20 10:53:55;;;;;;;1.23;1.13;;;17.00;99.90;;;;;;4890201;29;20458;-74
2021/05/20 10:56:23;;;;;;;1.02;1.02;;;17.20;99.90;;;;;;4894917;29;20430;-74
2021/05/20 10:58:52;;;;;;;1.38;1.27;;;17.00;99.90;;;;;;4896485;29;20396;-76
2021/05/20 11:01:21;;;;;;;1.70;1.20;;;16.80;99.90;;;;;;4863902;29;20522;-75
2021/05/20 11:03:46;;;;;;;1.63;1.52;;;17.20;99.90;;;;;;4927740;29;20400;-75
2021/05/20 11:06:16;;;;;;;2.20;2.00;;;17.80;99.90;;;;;;4925129;29;20440;-75
2021/05/20 11:08:44;;;;;;;1.70;1.60;;;18.40;99.90;;;;;;4894848;29;20452;-76
2021/05/20 11:11:31;;;;;;;1.50;1.40;;;18.80;99.90;;;;;;4910454;29;20415;-76
2021/05/20 11:13:57;;;;;;;1.80;1.70;;;19.20;99.90;;;;;;4926967;29;21113;-76
2021/05/20 11:16:36;;;;;;;1.50;1.40;;;19.10;99.90;;;;;;4879119;29;20411;-76
2021/05/20 11:22:01;;;;;;;1.38;1.35;;;17.80;99.90;;;;;;4910881;29;20418;-75
2021/05/20 11:24:31;;;;;;;1.30;1.20;;;16.60;99.90;;;;;;4907096;29;20485;-76
2021/05/20 11:26:57;;;;;;;1.70;1.30;;;15.70;99.90;;;;;;4880494;29;20447;-77
2021/05/20 11:29:25;;;;;;;1.03;1.03;;;15.70;99.90;;;;;;4911177;29;21166;-77
2021/05/20 11:31:58;;;;;;;1.10;1.10;;;15.80;99.90;;;;;;4892533;29;20955;-75
2021/05/20 11:37:04;;;;;;;1.30;1.20;;;17.30;99.90;;;;;;4888299;29;20404;-75
2021/05/20 11:39:31;;;;;;;1.00;1.00;;;17.60;99.90;;;;;;4881230;29;20416;-75
2021/05/20 11:41:57;;;;;;;1.50;1.00;;;17.30;99.90;;;;;;4894863;29;20461;-75
2021/05/20 11:44:26;;;;;;;1.20;1.20;;;17.10;99.90;;;;;;4907845;29;20404;-75
2021/05/20 11:46:54;;;;;;;0.80;0.80;;;17.00;99.90;;;;;;4893700;29;20403;-75
2021/05/20 11:49:23;;;;;;;1.17;1.08;;;17.10;99.90;;;;;;4910964;29;20411;-74
2021/05/20 11:52:08;;;;;;;0.90;0.90;;;17.30;99.90;;;;;;4896462;29;20396;-76
2021/05/20 11:54:38;;;;;;;0.82;0.82;;;18.10;99.90;;;;;;4917023;29;20438;-75
2021/05/20 11:57:08;;;;;;;0.80;0.80;;;19.10;99.90;;;;;;4885682;29;20410;-76
2021/05/20 11:59:33;;;;;;;1.00;1.00;;;19.50;99.90;;;;;;4899276;29;20404;-75
2021/05/20 12:02:00;;;;;;;1.00;1.00;;;20.00;99.90;;;;;;4912615;29;20399;-76
2021/05/20 12:04:26;;;;;;;0.75;0.75;;;20.40;99.90;;;;;;4868254;29;20404;-76
2021/05/20 12:06:51;;;;;;;1.05;1.05;;;20.60;99.90;;;;;;4862900;29;20988;-76
2021/05/20 12:09:17;;;;;;;0.90;0.90;;;20.60;99.90;;;;;;4901297;29;20407;-76
2021/05/20 12:11:43;;;;;;;0.65;0.65;;;20.50;99.90;;;;;;4898404;29;20403;-76
2021/05/20 12:14:29;;;;;;;0.80;0.80;;;20.30;99.90;;;;;;4929279;29;20507;-76
2021/05/20 12:17:09;;;;;;;1.30;1.20;;;20.60;99.90;;;;;;4866312;29;20423;-76
2021/05/20 12:19:41;;;;;;;0.80;0.80;;;20.80;99.90;;;;;;4897988;29;20404;-76
2021/05/20 12:22:18;;;;;;;0.88;0.88;;;21.60;99.90;;;;;;4897297;29;20418;-76
2021/05/20 12:24:54;;;;;;;0.70;0.70;;;21.60;99.90;;;;;;4888739;29;20417;-76
2021/05/20 12:27:20;;;;;;;1.27;1.00;;;21.40;99.90;;;;;;4918673;29;20411;-76
2021/05/20 12:29:48;;;;;;;0.87;0.87;;;20.40;99.90;;;;;;4897384;29;20459;-76
2021/05/20 12:32:29;;;;;;;1.23;1.10;;;20.00;99.90;;;;;;4896455;29;20430;-76
2021/05/20 12:35:18;;;;;;;0.95;0.95;;;19.80;99.90;;;;;;4898679;29;20404;-76
2021/05/20 12:38:00;;;;;;;0.68;0.68;;;19.90;99.90;;;;;;4897921;29;20446;-76
2021/05/20 12:40:32;;;;;;;1.17;1.17;;;20.10;99.90;;;;;;4908528;29;20756;-77
2021/05/20 12:43:11;;;;;;;0.88;0.88;;;20.40;99.90;;;;;;4886427;29;20914;-76
2021/05/20 12:45:41;;;;;;;1.05;0.95;;;21.00;99.90;;;;;;4910083;29;20392;-76
2021/05/20 12:48:40;;;;;;;1.10;1.10;;;21.60;99.90;;;;;;4912706;29;20407;-76
2021/05/20 12:51:17;;;;;;;0.93;0.93;;;21.60;99.90;;;;;;4904640;29;20492;-76
2021/05/20 12:53:50;;;;;;;1.05;1.05;;;21.10;99.90;;;;;;4898133;29;20388;-76
2021/05/20 12:56:24;;;;;;;0.90;0.90;;;21.20;99.90;;;;;;4912889;29;20430;-76
2021/05/20 12:58:55;;;;;;;1.33;1.15;;;21.60;99.90;;;;;;4912850;29;20403;-76
2021/05/20 13:01:22;;;;;;;1.05;1.02;;;21.20;99.90;;;;;;4897017;29;20404;-77
2021/05/20 13:03:48;;;;;;;0.98;0.98;;;21.20;99.90;;;;;;4896316;29;20396;-76
2021/05/20 13:06:21;;;;;;;1.70;1.05;;;21.30;99.90;;;;;;4912514;29;20416;-77